sensor_id;sensor_type;location;lat;lon;timestamp;temperature;humidity
62583;DHT22;48641;51.676;5.808;2024-01-15T00:00:39;14.60;47.80
62583;DHT22;48641;51.676;5.808;2024-01-15T00:03:05;14.60;47.80
62583;DHT22;48641;51.676;5.808;2024-01-15T00:05:31;14.60;47.80
62583;DHT22;48641;51.676;5.808;2024-01-15T00:07:56;14.50;47.80
62583;DHT22;48641;51.676;5.808;2024-01-15T00:10:23;14.50;47.80
62583;DHT22;48641;51.676;5.808;2024-01-15T00:12:48;14.50;47.90
62583;DHT22;48641;51.676;5.808;2024-01-15T00:15:14;14.50;47.90
62583;DHT22;48641;51.676;5.808;2024-01-15T00:17:40;14.40;47.90
62583;DHT22;48641;51.676;5.808;2024-01-15T00:20:06;14.40;47.80
62583;DHT22;48641;51.676;5.808;2024-01-15T00:22:32;14.40;47.90
62583;DHT22;48641;51.676;5.808;2024-01-15T00:24:58;14.40;47.90
62583;DHT22;48641;51.676;5.808;2024-01-15T00:27:23;14.40;48.00
62583;DHT22;48641;51.676;5.808;2024-01-15T00:29:49;14.30;47.90
62583;DHT22;48641;51.676;5.808;2024-01-15T00:32:17;14.30;48.00
62583;DHT22;48641;51.676;5.808;2024-01-15T00:34:42;14.30;48.10
62583;DHT22;48641;51.676;5.808;2024-01-15T00:37:08;14.30;48.10
62583;DHT22;48641;51.676;5.808;2024-01-15T00:39:34;14.30;48.20
62583;DHT22;48641;51.676;5.808;2024-01-15T00:41:59;14.30;48.20
62583;DHT22;48641;51.676;5.808;2024-01-15T00:44:25;14.30;48.20
62583;DHT22;48641;51.676;5.808;2024-01-15T00:46:50;14.20;48.30
62583;DHT22;48641;51.676;5.808;2024-01-15T00:49:16;14.20;48.40
62583;DHT22;48641;51.676;5.808;2024-01-15T00:51:42;14.20;48.30
62583;DHT22;48641;51.676;5.808;2024-01-15T00:54:07;14.20;48.40
62583;DHT22;48641;51.676;5.808;2024-01-15T00:56:33;14.20;48.40
62583;DHT22;48641;51.676;5.808;2024-01-15T00:59:00;14.20;48.40
62583;DHT22;48641;51.676;5.808;2024-01-15T01:01:25;14.10;48.50
62583;DHT22;48641;51.676;5.808;2024-01-15T01:03:51;14.10;48.60
62583;DHT22;48641;51.676;5.808;2024-01-15T01:06:16;14.10;48.60
62583;DHT22;48641;51.676;5.808;2024-01-15T01:08:42;14.10;48.60
62583;DHT22;48641;51.676;5.808;2024-01-15T01:11:07;14.10;48.60
62583;DHT22;48641;51.676;5.808;2024-01-15T01:13:37;14.10;48.60
62583;DHT22;48641;51.676;5.808;2024-01-15T01:16:03;14.10;48.60
62583;DHT22;48641;51.676;5.808;2024-01-15T01:18:29;14.10;48.70
62583;DHT22;48641;51.676;5.808;2024-01-15T01:20:54;14.00;48.70
62583;DHT22;48641;51.676;5.808;2024-01-15T01:23:20;14.00;48.70
62583;DHT22;48641;51.676;5.808;2024-01-15T01:25:45;14.00;48.70
62583;DHT22;48641;51.676;5.808;2024-01-15T01:28:11;14.00;48.80
62583;DHT22;48641;51.676;5.808;2024-01-15T01:30:36;14.00;48.90
62583;DHT22;48641;51.676;5.808;2024-01-15T01:33:02;14.00;48.90
62583;DHT22;48641;51.676;5.808;2024-01-15T01:35:28;14.00;48.90
62583;DHT22;48641;51.676;5.808;2024-01-15T01:37:53;14.00;48.90
62583;DHT22;48641;51.676;5.808;2024-01-15T01:40:19;14.00;48.80
62583;DHT22;48641;51.676;5.808;2024-01-15T01:42:46;14.00;48.90
62583;DHT22;48641;51.676;5.808;2024-01-15T01:45:11;14.00;48.90
62583;DHT22;48641;51.676;5.808;2024-01-15T01:47:38;14.00;48.90
62583;DHT22;48641;51.676;5.808;2024-01-15T01:50:04;14.00;48.90
62583;DHT22;48641;51.676;5.808;2024-01-15T01:52:30;14.00;48.90
62583;DHT22;48641;51.676;5.808;2024-01-15T01:54:56;14.00;48.90
62583;DHT22;48641;51.676;5.808;2024-01-15T01:57:22;14.00;48.90
62583;DHT22;48641;51.676;5.808;2024-01-15T01:59:48;14.10;48.90
62583;DHT22;48641;51.676;5.808;2024-01-15T02:02:14;14.10;48.90
62583;DHT22;48641;51.676;5.808;2024-01-15T02:04:40;14.10;48.90
62583;DHT22;48641;51.676;5.808;2024-01-15T02:07:06;14.10;48.80
62583;DHT22;48641;51.676;5.808;2024-01-15T02:09:31;14.10;48.70
62583;DHT22;48641;51.676;5.808;2024-01-15T02:11:57;14.20;48.80
62583;DHT22;48641;51.676;5.808;2024-01-15T02:14:23;14.20;48.80
62583;DHT22;48641;51.676;5.808;2024-01-15T02:16:49;14.10;48.70
62583;DHT22;48641;51.676;5.808;2024-01-15T02:19:15;14.20;48.70
62583;DHT22;48641;51.676;5.808;2024-01-15T02:21:42;14.20;48.70
62583;DHT22;48641;51.676;5.808;2024-01-15T02:24:07;14.20;48.60
62583;DHT22;48641;51.676;5.808;2024-01-15T02:26:33;14.30;48.60
62583;DHT22;48641;51.676;5.808;2024-01-15T02:29:01;14.30;48.50
62583;DHT22;48641;51.676;5.808;2024-01-15T02:31:27;14.30;48.50
62583;DHT22;48641;51.676;5.808;2024-01-15T02:33:52;14.30;48.50
62583;DHT22;48641;51.676;5.808;2024-01-15T02:36:18;14.30;48.40
62583;DHT22;48641;51.676;5.808;2024-01-15T02:38:43;14.40;48.50
62583;DHT22;48641;51.676;5.808;2024-01-15T02:41:09;14.40;48.40
62583;DHT22;48641;51.676;5.808;2024-01-15T02:43:35;14.40;48.30
62583;DHT22;48641;51.676;5.808;2024-01-15T02:46:00;14.40;48.30
62583;DHT22;48641;51.676;5.808;2024-01-15T02:48:26;14.40;48.30
62583;DHT22;48641;51.676;5.808;2024-01-15T02:50:51;14.40;48.30
62583;DHT22;48641;51.676;5.808;2024-01-15T02:53:17;14.40;48.30
62583;DHT22;48641;51.676;5.808;2024-01-15T02:55:42;14.40;48.20
62583;DHT22;48641;51.676;5.808;2024-01-15T02:58:08;14.40;49.20
62583;DHT22;48641;51.676;5.808;2024-01-15T03:00:34;14.40;48.20
62583;DHT22;48641;51.676;5.808;2024-01-15T03:02:59;14.40;48.30
62583;DHT22;48641;51.676;5.808;2024-01-15T03:05:25;14.40;48.30
62583;DHT22;48641;51.676;5.808;2024-01-15T03:07:50;14.40;48.30
62583;DHT22;48641;51.676;5.808;2024-01-15T03:10:16;14.40;48.30
62583;DHT22;48641;51.676;5.808;2024-01-15T03:12:42;14.40;48.30
62583;DHT22;48641;51.676;5.808;2024-01-15T03:15:07;14.40;48.30
62583;DHT22;48641;51.676;5.808;2024-01-15T03:17:33;14.50;48.30
62583;DHT22;48641;51.676;5.808;2024-01-15T03:19:58;14.50;48.20
62583;DHT22;48641;51.676;5.808;2024-01-15T03:22:24;14.50;48.00
62583;DHT22;48641;51.676;5.808;2024-01-15T03:24:49;14.50;48.10
62583;DHT22;48641;51.676;5.808;2024-01-15T03:27:15;14.50;48.10
62583;DHT22;48641;51.676;5.808;2024-01-15T03:29:41;14.50;48.40
62583;DHT22;48641;51.676;5.808;2024-01-15T03:32:07;14.50;48.10
62583;DHT22;48641;51.676;5.808;2024-01-15T03:34:32;14.50;48.00
62583;DHT22;48641;51.676;5.808;2024-01-15T03:36:58;14.50;47.90
62583;DHT22;48641;51.676;5.808;2024-01-15T03:39:24;14.50;47.90
62583;DHT22;48641;51.676;5.808;2024-01-15T03:41:50;14.50;47.90
62583;DHT22;48641;51.676;5.808;2024-01-15T03:44:15;14.50;47.80
62583;DHT22;48641;51.676;5.808;2024-01-15T03:46:41;14.50;47.90
62583;DHT22;48641;51.676;5.808;2024-01-15T03:49:07;14.50;47.90
62583;DHT22;48641;51.676;5.808;2024-01-15T03:51:32;14.50;48.00
62583;DHT22;48641;51.676;5.808;2024-01-15T03:53:58;14.50;48.00
62583;DHT22;48641;51.676;5.808;2024-01-15T03:56:23;14.50;48.00
62583;DHT22;48641;51.676;5.808;2024-01-15T03:58:49;14.50;48.10
62583;DHT22;48641;51.676;5.808;2024-01-15T04:01:14;14.50;48.10
62583;DHT22;48641;51.676;5.808;2024-01-15T04:03:40;14.50;48.20
62583;DHT22;48641;51.676;5.808;2024-01-15T04:06:06;14.50;48.10
62583;DHT22;48641;51.676;5.808;2024-01-15T04:08:31;14.50;48.20
62583;DHT22;48641;51.676;5.808;2024-01-15T04:10:57;14.50;48.20
62583;DHT22;48641;51.676;5.808;2024-01-15T04:13:22;14.50;48.20
62583;DHT22;48641;51.676;5.808;2024-01-15T04:15:48;14.60;48.20
62583;DHT22;48641;51.676;5.808;2024-01-15T04:18:16;14.60;48.20
62583;DHT22;48641;51.676;5.808;2024-01-15T04:20:41;14.60;48.20
62583;DHT22;48641;51.676;5.808;2024-01-15T04:23:07;14.50;48.10
62583;DHT22;48641;51.676;5.808;2024-01-15T04:25:32;14.50;48.10
62583;DHT22;48641;51.676;5.808;2024-01-15T04:27:58;14.60;48.10
62583;DHT22;48641;51.676;5.808;2024-01-15T04:30:24;14.60;48.10
62583;DHT22;48641;51.676;5.808;2024-01-15T04:32:49;14.60;48.00
62583;DHT22;48641;51.676;5.808;2024-01-15T04:35:15;14.60;48.00
62583;DHT22;48641;51.676;5.808;2024-01-15T04:37:41;14.50;48.00
62583;DHT22;48641;51.676;5.808;2024-01-15T04:40:07;14.60;48.00
62583;DHT22;48641;51.676;5.808;2024-01-15T04:42:32;14.50;48.00
62583;DHT22;48641;51.676;5.808;2024-01-15T04:44:58;14.50;48.00
62583;DHT22;48641;51.676;5.808;2024-01-15T04:47:24;14.50;48.00
62583;DHT22;48641;51.676;5.808;2024-01-15T04:49:50;14.60;48.10
62583;DHT22;48641;51.676;5.808;2024-01-15T04:52:15;14.60;48.10
62583;DHT22;48641;51.676;5.808;2024-01-15T04:54:41;14.60;48.10
62583;DHT22;48641;51.676;5.808;2024-01-15T04:57:06;14.60;48.10
62583;DHT22;48641;51.676;5.808;2024-01-15T04:59:32;14.60;48.10
62583;DHT22;48641;51.676;5.808;2024-01-15T05:01:58;14.50;48.00
62583;DHT22;48641;51.676;5.808;2024-01-15T05:04:23;14.60;48.10
62583;DHT22;48641;51.676;5.808;2024-01-15T05:06:50;14.60;48.10
62583;DHT22;48641;51.676;5.808;2024-01-15T05:09:16;14.60;48.10
62583;DHT22;48641;51.676;5.808;2024-01-15T05:11:43;14.60;48.00
62583;DHT22;48641;51.676;5.808;2024-01-15T05:14:12;14.60;48.00
62583;DHT22;48641;51.676;5.808;2024-01-15T05:16:38;14.60;48.00
62583;DHT22;48641;51.676;5.808;2024-01-15T05:19:04;14.60;48.00
62583;DHT22;48641;51.676;5.808;2024-01-15T05:21:30;14.60;48.00
62583;DHT22;48641;51.676;5.808;2024-01-15T05:23:55;14.60;48.00
62583;DHT22;48641;51.676;5.808;2024-01-15T05:26:21;14.60;48.00
62583;DHT22;48641;51.676;5.808;2024-01-15T05:28:46;14.60;48.00
62583;DHT22;48641;51.676;5.808;2024-01-15T05:31:12;14.50;47.70
62583;DHT22;48641;51.676;5.808;2024-01-15T05:33:37;14.60;47.90
62583;DHT22;48641;51.676;5.808;2024-01-15T05:36:03;14.60;48.10
62583;DHT22;48641;51.676;5.808;2024-01-15T05:38:29;14.50;48.00
62583;DHT22;48641;51.676;5.808;2024-01-15T05:40:54;14.50;48.90
62583;DHT22;48641;51.676;5.808;2024-01-15T05:43:20;14.50;48.00
62583;DHT22;48641;51.676;5.808;2024-01-15T05:45:46;14.50;48.00
62583;DHT22;48641;51.676;5.808;2024-01-15T05:48:12;14.60;48.00
62583;DHT22;48641;51.676;5.808;2024-01-15T05:50:39;14.60;47.90
62583;DHT22;48641;51.676;5.808;2024-01-15T05:53:04;14.60;48.10
62583;DHT22;48641;51.676;5.808;2024-01-15T05:55:30;14.50;48.00
62583;DHT22;48641;51.676;5.808;2024-01-15T05:57:55;14.60;48.20
62583;DHT22;48641;51.676;5.808;2024-01-15T06:00:21;14.60;48.10
62583;DHT22;48641;51.676;5.808;2024-01-15T06:02:47;14.60;48.10
62583;DHT22;48641;51.676;5.808;2024-01-15T06:05:12;14.60;48.10
62583;DHT22;48641;51.676;5.808;2024-01-15T06:07:38;14.60;48.00
62583;DHT22;48641;51.676;5.808;2024-01-15T06:10:04;14.60;48.00
62583;DHT22;48641;51.676;5.808;2024-01-15T06:12:30;14.60;48.00
62583;DHT22;48641;51.676;5.808;2024-01-15T06:14:56;14.60;48.00
62583;DHT22;48641;51.676;5.808;2024-01-15T06:17:22;14.60;48.00
62583;DHT22;48641;51.676;5.808;2024-01-15T06:19:47;14.60;48.10
62583;DHT22;48641;51.676;5.808;2024-01-15T06:22:13;14.60;48.10
62583;DHT22;48641;51.676;5.808;2024-01-15T06:24:41;14.60;48.10
62583;DHT22;48641;51.676;5.808;2024-01-15T06:27:07;14.50;48.10
62583;DHT22;48641;51.676;5.808;2024-01-15T06:29:32;14.60;48.20
62583;DHT22;48641;51.676;5.808;2024-01-15T06:31:58;14.50;48.20
62583;DHT22;48641;51.676;5.808;2024-01-15T06:34:23;14.60;49.30
62583;DHT22;48641;51.676;5.808;2024-01-15T06:36:49;14.60;48.10
62583;DHT22;48641;51.676;5.808;2024-01-15T06:39:15;14.60;48.10
62583;DHT22;48641;51.676;5.808;2024-01-15T06:41:40;14.60;48.10
62583;DHT22;48641;51.676;5.808;2024-01-15T06:44:12;14.60;48.00
62583;DHT22;48641;51.676;5.808;2024-01-15T06:46:44;14.60;48.00
62583;DHT22;48641;51.676;5.808;2024-01-15T06:49:10;14.60;48.00
62583;DHT22;48641;51.676;5.808;2024-01-15T06:51:36;14.60;48.10
62583;DHT22;48641;51.676;5.808;2024-01-15T06:54:02;14.50;48.10
62583;DHT22;48641;51.676;5.808;2024-01-15T06:56:27;14.50;48.10
62583;DHT22;48641;51.676;5.808;2024-01-15T06:58:53;14.50;48.00
62583;DHT22;48641;51.676;5.808;2024-01-15T07:01:18;14.60;48.00
62583;DHT22;48641;51.676;5.808;2024-01-15T07:03:44;14.60;48.10
62583;DHT22;48641;51.676;5.808;2024-01-15T07:06:11;14.60;48.10
62583;DHT22;48641;51.676;5.808;2024-01-15T07:08:37;14.60;48.00
62583;DHT22;48641;51.676;5.808;2024-01-15T07:11:06;14.60;48.00
62583;DHT22;48641;51.676;5.808;2024-01-15T07:13:32;14.70;48.00
62583;DHT22;48641;51.676;5.808;2024-01-15T07:15:58;14.70;47.90
62583;DHT22;48641;51.676;5.808;2024-01-15T07:18:24;14.70;47.80
62583;DHT22;48641;51.676;5.808;2024-01-15T07:20:50;14.70;47.90
62583;DHT22;48641;51.676;5.808;2024-01-15T07:23:16;14.70;47.90
62583;DHT22;48641;51.676;5.808;2024-01-15T07:25:42;14.70;47.80
62583;DHT22;48641;51.676;5.808;2024-01-15T07:28:08;14.70;47.80
62583;DHT22;48641;51.676;5.808;2024-01-15T07:30:34;14.70;47.70
62583;DHT22;48641;51.676;5.808;2024-01-15T07:32:59;14.60;49.50
62583;DHT22;48641;51.676;5.808;2024-01-15T07:35:25;14.70;49.40
62583;DHT22;48641;51.676;5.808;2024-01-15T07:37:50;14.70;49.50
62583;DHT22;48641;51.676;5.808;2024-01-15T07:40:16;14.70;52.00
62583;DHT22;48641;51.676;5.808;2024-01-15T07:42:42;14.80;53.10
62583;DHT22;48641;51.676;5.808;2024-01-15T07:45:11;14.90;53.00
62583;DHT22;48641;51.676;5.808;2024-01-15T07:47:37;14.90;52.60
62583;DHT22;48641;51.676;5.808;2024-01-15T07:50:03;15.00;52.50
62583;DHT22;48641;51.676;5.808;2024-01-15T07:52:30;15.00;52.40
62583;DHT22;48641;51.676;5.808;2024-01-15T07:54:56;15.00;52.30
62583;DHT22;48641;51.676;5.808;2024-01-15T07:57:21;15.10;52.10
62583;DHT22;48641;51.676;5.808;2024-01-15T07:59:48;15.10;52.00
62583;DHT22;48641;51.676;5.808;2024-01-15T08:02:13;15.20;51.90
62583;DHT22;48641;51.676;5.808;2024-01-15T08:04:39;15.20;51.80
62583;DHT22;48641;51.676;5.808;2024-01-15T08:07:05;15.30;51.70
62583;DHT22;48641;51.676;5.808;2024-01-15T08:09:32;15.30;51.40
62583;DHT22;48641;51.676;5.808;2024-01-15T08:11:58;15.30;51.30
62583;DHT22;48641;51.676;5.808;2024-01-15T08:14:23;15.40;51.20
62583;DHT22;48641;51.676;5.808;2024-01-15T08:16:49;15.40;51.10
62583;DHT22;48641;51.676;5.808;2024-01-15T08:19:15;15.50;51.10
62583;DHT22;48641;51.676;5.808;2024-01-15T08:21:40;15.50;51.00
62583;DHT22;48641;51.676;5.808;2024-01-15T08:24:06;15.50;51.00
62583;DHT22;48641;51.676;5.808;2024-01-15T08:26:32;15.50;50.80
62583;DHT22;48641;51.676;5.808;2024-01-15T08:28:58;15.60;50.80
62583;DHT22;48641;51.676;5.808;2024-01-15T08:31:23;15.60;50.80
62583;DHT22;48641;51.676;5.808;2024-01-15T08:33:49;15.60;50.80
62583;DHT22;48641;51.676;5.808;2024-01-15T08:36:15;15.60;50.70
62583;DHT22;48641;51.676;5.808;2024-01-15T08:38:40;15.60;50.50
62583;DHT22;48641;51.676;5.808;2024-01-15T08:41:06;15.60;50.80
62583;DHT22;48641;51.676;5.808;2024-01-15T08:43:34;15.70;51.20
62583;DHT22;48641;51.676;5.808;2024-01-15T08:45:59;15.70;51.10
62583;DHT22;48641;51.676;5.808;2024-01-15T08:48:26;15.80;51.40
62583;DHT22;48641;51.676;5.808;2024-01-15T08:50:54;15.80;51.90
62583;DHT22;48641;51.676;5.808;2024-01-15T08:53:20;15.80;52.00
62583;DHT22;48641;51.676;5.808;2024-01-15T08:55:46;15.90;52.00
62583;DHT22;48641;51.676;5.808;2024-01-15T08:58:13;16.00;52.00
62583;DHT22;48641;51.676;5.808;2024-01-15T09:00:38;16.20;51.70
62583;DHT22;48641;51.676;5.808;2024-01-15T09:03:04;16.30;51.10
62583;DHT22;48641;51.676;5.808;2024-01-15T09:05:30;16.30;51.10
62583;DHT22;48641;51.676;5.808;2024-01-15T09:07:56;16.30;50.10
62583;DHT22;48641;51.676;5.808;2024-01-15T09:10:21;16.30;50.80
62583;DHT22;48641;51.676;5.808;2024-01-15T09:12:47;16.30;51.60
62583;DHT22;48641;51.676;5.808;2024-01-15T09:15:14;16.40;52.90
62583;DHT22;48641;51.676;5.808;2024-01-15T09:17:40;16.50;51.90
62583;DHT22;48641;51.676;5.808;2024-01-15T09:20:08;16.60;52.30
62583;DHT22;48641;51.676;5.808;2024-01-15T09:22:34;16.60;51.00
62583;DHT22;48641;51.676;5.808;2024-01-15T09:25:00;16.60;50.60
62583;DHT22;48641;51.676;5.808;2024-01-15T09:27:26;16.50;50.50
62583;DHT22;48641;51.676;5.808;2024-01-15T09:29:52;16.40;50.30
62583;DHT22;48641;51.676;5.808;2024-01-15T09:32:18;16.40;50.30
62583;DHT22;48641;51.676;5.808;2024-01-15T09:34:44;16.30;50.20
62583;DHT22;48641;51.676;5.808;2024-01-15T09:37:11;16.20;50.10
62583;DHT22;48641;51.676;5.808;2024-01-15T09:39:37;16.10;49.80
62583;DHT22;48641;51.676;5.808;2024-01-15T09:42:03;16.00;50.00
62583;DHT22;48641;51.676;5.808;2024-01-15T09:44:30;15.90;50.10
62583;DHT22;48641;51.676;5.808;2024-01-15T09:46:56;15.90;50.20
62583;DHT22;48641;51.676;5.808;2024-01-15T09:49:22;15.80;50.20
62583;DHT22;48641;51.676;5.808;2024-01-15T09:51:48;15.80;50.30
62583;DHT22;48641;51.676;5.808;2024-01-15T09:54:15;15.70;50.20
62583;DHT22;48641;51.676;5.808;2024-01-15T09:56:45;15.60;50.30
62583;DHT22;48641;51.676;5.808;2024-01-15T09:59:17;15.50;50.30
62583;DHT22;48641;51.676;5.808;2024-01-15T10:01:44;15.50;50.40
62583;DHT22;48641;51.676;5.808;2024-01-15T10:04:11;15.40;50.40
62583;DHT22;48641;51.676;5.808;2024-01-15T10:06:38;15.40;50.50
62583;DHT22;48641;51.676;5.808;2024-01-15T10:09:05;15.30;50.50
62583;DHT22;48641;51.676;5.808;2024-01-15T10:11:31;15.30;50.50
62583;DHT22;48641;51.676;5.808;2024-01-15T10:13:57;15.30;50.60
62583;DHT22;48641;51.676;5.808;2024-01-15T10:16:23;15.20;50.70
62583;DHT22;48641;51.676;5.808;2024-01-15T10:18:49;15.30;50.80
62583;DHT22;48641;51.676;5.808;2024-01-15T10:21:15;15.30;50.70
62583;DHT22;48641;51.676;5.808;2024-01-15T10:23:41;15.30;50.80
62583;DHT22;48641;51.676;5.808;2024-01-15T10:26:07;15.30;50.90
62583;DHT22;48641;51.676;5.808;2024-01-15T10:28:34;15.30;50.80
62583;DHT22;48641;51.676;5.808;2024-01-15T10:31:00;15.30;50.70
62583;DHT22;48641;51.676;5.808;2024-01-15T10:33:26;15.30;50.70
62583;DHT22;48641;51.676;5.808;2024-01-15T10:35:56;15.30;50.70
62583;DHT22;48641;51.676;5.808;2024-01-15T10:38:23;15.30;50.60
62583;DHT22;48641;51.676;5.808;2024-01-15T10:40:55;15.30;50.50
62583;DHT22;48641;51.676;5.808;2024-01-15T10:43:22;15.30;50.50
62583;DHT22;48641;51.676;5.808;2024-01-15T10:45:49;15.40;50.40
62583;DHT22;48641;51.676;5.808;2024-01-15T10:48:16;15.40;50.30
62583;DHT22;48641;51.676;5.808;2024-01-15T10:50:46;15.30;50.30
62583;DHT22;48641;51.676;5.808;2024-01-15T10:53:14;15.30;50.30
62583;DHT22;48641;51.676;5.808;2024-01-15T10:55:41;15.40;50.30
62583;DHT22;48641;51.676;5.808;2024-01-15T10:58:09;15.40;50.30
62583;DHT22;48641;51.676;5.808;2024-01-15T11:00:35;15.30;50.30
62583;DHT22;48641;51.676;5.808;2024-01-15T11:03:03;15.30;50.40
62583;DHT22;48641;51.676;5.808;2024-01-15T11:05:37;15.30;50.40
62583;DHT22;48641;51.676;5.808;2024-01-15T11:08:05;15.30;50.40
62583;DHT22;48641;51.676;5.808;2024-01-15T11:10:46;15.30;50.30
62583;DHT22;48641;51.676;5.808;2024-01-15T11:16:11;15.30;50.40
62583;DHT22;48641;51.676;5.808;2024-01-15T11:18:41;15.20;50.50
62583;DHT22;48641;51.676;5.808;2024-01-15T11:28:56;15.20;50.70
62583;DHT22;48641;51.676;5.808;2024-01-15T11:34:09;15.10;50.50
62583;DHT22;48641;51.676;5.808;2024-01-15T11:42:02;15.10;50.90
62583;DHT22;48641;51.676;5.808;2024-01-15T11:44:29;15.10;51.00
62583;DHT22;48641;51.676;5.808;2024-01-15T11:47:03;15.10;50.90
62583;DHT22;48641;51.676;5.808;2024-01-15T11:52:05;15.10;50.20
62583;DHT22;48641;51.676;5.808;2024-01-15T11:54:33;15.10;51.70
62583;DHT22;48641;51.676;5.808;2024-01-15T11:57:04;15.10;50.90
62583;DHT22;48641;51.676;5.808;2024-01-15T11:59:32;15.10;51.00
62583;DHT22;48641;51.676;5.808;2024-01-15T12:01:57;15.10;50.90
62583;DHT22;48641;51.676;5.808;2024-01-15T12:04:23;15.10;50.80
62583;DHT22;48641;51.676;5.808;2024-01-15T12:06:49;15.10;50.90
62583;DHT22;48641;51.676;5.808;2024-01-15T12:09:14;15.10;51.00
62583;DHT22;48641;51.676;5.808;2024-01-15T12:11:45;15.10;50.90
62583;DHT22;48641;51.676;5.808;2024-01-15T12:14:12;15.10;51.00
62583;DHT22;48641;51.676;5.808;2024-01-15T12:16:38;15.10;50.90
62583;DHT22;48641;51.676;5.808;2024-01-15T12:19:04;15.10;50.60
62583;DHT22;48641;51.676;5.808;2024-01-15T12:21:29;15.10;50.50
62583;DHT22;48641;51.676;5.808;2024-01-15T12:23:56;15.10;50.80
62583;DHT22;48641;51.676;5.808;2024-01-15T12:26:21;15.10;50.80
62583;DHT22;48641;51.676;5.808;2024-01-15T12:28:50;15.10;50.80
62583;DHT22;48641;51.676;5.808;2024-01-15T12:31:16;15.10;50.40
62583;DHT22;48641;51.676;5.808;2024-01-15T12:33:42;15.10;50.80
62583;DHT22;48641;51.676;5.808;2024-01-15T12:36:07;15.00;50.80
62583;DHT22;48641;51.676;5.808;2024-01-15T12:38:33;15.10;51.00
62583;DHT22;48641;51.676;5.808;2024-01-15T12:41:00;15.00;51.00
62583;DHT22;48641;51.676;5.808;2024-01-15T12:43:26;15.00;50.90
62583;DHT22;48641;51.676;5.808;2024-01-15T12:45:52;15.10;51.00
62583;DHT22;48641;51.676;5.808;2024-01-15T12:48:17;15.10;51.00
62583;DHT22;48641;51.676;5.808;2024-01-15T12:50:43;15.10;51.00
62583;DHT22;48641;51.676;5.808;2024-01-15T12:53:10;15.10;51.10
62583;DHT22;48641;51.676;5.808;2024-01-15T12:55:36;15.10;51.10
62583;DHT22;48641;51.676;5.808;2024-01-15T12:58:02;15.10;51.10
62583;DHT22;48641;51.676;5.808;2024-01-15T13:00:27;15.10;51.00
62583;DHT22;48641;51.676;5.808;2024-01-15T13:02:53;15.10;51.00
62583;DHT22;48641;51.676;5.808;2024-01-15T13:05:20;15.10;51.10
62583;DHT22;48641;51.676;5.808;2024-01-15T13:07:46;15.10;51.10
62583;DHT22;48641;51.676;5.808;2024-01-15T13:10:12;15.10;51.10
62583;DHT22;48641;51.676;5.808;2024-01-15T13:12:38;15.10;51.00
62583;DHT22;48641;51.676;5.808;2024-01-15T13:15:04;15.10;51.00
62583;DHT22;48641;51.676;5.808;2024-01-15T13:17:30;15.10;51.10
62583;DHT22;48641;51.676;5.808;2024-01-15T13:19:56;15.10;51.00
62583;DHT22;48641;51.676;5.808;2024-01-15T13:22:21;15.10;51.00
62583;DHT22;48641;51.676;5.808;2024-01-15T13:24:47;15.10;51.10
62583;DHT22;48641;51.676;5.808;2024-01-15T13:27:12;15.10;51.10
62583;DHT22;48641;51.676;5.808;2024-01-15T13:29:38;15.10;51.10
62583;DHT22;48641;51.676;5.808;2024-01-15T13:32:04;15.10;51.10
62583;DHT22;48641;51.676;5.808;2024-01-15T13:34:30;15.10;51.20
62583;DHT22;48641;51.676;5.808;2024-01-15T13:36:56;15.10;51.10
62583;DHT22;48641;51.676;5.808;2024-01-15T13:39:22;15.10;51.20
62583;DHT22;48641;51.676;5.808;2024-01-15T13:41:49;15.10;52.10
62583;DHT22;48641;51.676;5.808;2024-01-15T13:44:14;15.10;51.10
62583;DHT22;48641;51.676;5.808;2024-01-15T13:46:40;15.10;51.00
62583;DHT22;48641;51.676;5.808;2024-01-15T13:49:07;15.10;51.10
62583;DHT22;48641;51.676;5.808;2024-01-15T13:51:32;15.10;51.20
62583;DHT22;48641;51.676;5.808;2024-01-15T13:53:58;15.10;51.10
62583;DHT22;48641;51.676;5.808;2024-01-15T13:56:25;15.10;51.20
62583;DHT22;48641;51.676;5.808;2024-01-15T13:58:50;15.10;51.20
62583;DHT22;48641;51.676;5.808;2024-01-15T14:01:17;15.10;51.20
62583;DHT22;48641;51.676;5.808;2024-01-15T14:03:43;15.10;51.20
62583;DHT22;48641;51.676;5.808;2024-01-15T14:06:09;15.10;51.30
62583;DHT22;48641;51.676;5.808;2024-01-15T14:08:36;15.10;51.30
62583;DHT22;48641;51.676;5.808;2024-01-15T14:11:02;15.10;51.20
62583;DHT22;48641;51.676;5.808;2024-01-15T14:13:28;15.10;51.20
62583;DHT22;48641;51.676;5.808;2024-01-15T14:15:54;15.10;51.30
62583;DHT22;48641;51.676;5.808;2024-01-15T14:18:21;15.10;51.10
62583;DHT22;48641;51.676;5.808;2024-01-15T14:20:47;15.10;50.80
62583;DHT22;48641;51.676;5.808;2024-01-15T14:23:13;15.10;51.20
62583;DHT22;48641;51.676;5.808;2024-01-15T14:25:39;15.10;51.30
62583;DHT22;48641;51.676;5.808;2024-01-15T14:28:04;15.20;51.30
62583;DHT22;48641;51.676;5.808;2024-01-15T14:30:30;15.20;51.30
62583;DHT22;48641;51.676;5.808;2024-01-15T14:32:56;15.10;51.10
62583;DHT22;48641;51.676;5.808;2024-01-15T14:35:21;15.20;51.40
62583;DHT22;48641;51.676;5.808;2024-01-15T14:37:47;15.10;51.30
62583;DHT22;48641;51.676;5.808;2024-01-15T14:40:13;15.20;51.30
62583;DHT22;48641;51.676;5.808;2024-01-15T14:42:41;15.10;51.30
62583;DHT22;48641;51.676;5.808;2024-01-15T14:45:07;15.10;51.20
62583;DHT22;48641;51.676;5.808;2024-01-15T14:47:39;15.10;51.30
62583;DHT22;48641;51.676;5.808;2024-01-15T14:50:08;15.10;51.30
62583;DHT22;48641;51.676;5.808;2024-01-15T14:52:35;15.10;51.30
62583;DHT22;48641;51.676;5.808;2024-01-15T14:55:01;15.10;51.20
62583;DHT22;48641;51.676;5.808;2024-01-15T14:57:27;15.10;51.20
62583;DHT22;48641;51.676;5.808;2024-01-15T14:59:53;15.10;51.20
62583;DHT22;48641;51.676;5.808;2024-01-15T15:02:19;15.10;51.20
62583;DHT22;48641;51.676;5.808;2024-01-15T15:04:45;15.10;51.10
62583;DHT22;48641;51.676;5.808;2024-01-15T15:07:10;15.10;51.40
62583;DHT22;48641;51.676;5.808;2024-01-15T15:09:36;15.10;51.10
62583;DHT22;48641;51.676;5.808;2024-01-15T15:12:03;15.10;51.10
62583;DHT22;48641;51.676;5.808;2024-01-15T15:14:30;15.10;51.10
62583;DHT22;48641;51.676;5.808;2024-01-15T15:16:57;15.10;50.90
62583;DHT22;48641;51.676;5.808;2024-01-15T15:19:23;15.10;51.90
62583;DHT22;48641;51.676;5.808;2024-01-15T15:21:48;15.20;51.00
62583;DHT22;48641;51.676;5.808;2024-01-15T15:24:14;15.20;51.00
62583;DHT22;48641;51.676;5.808;2024-01-15T15:26:39;15.10;51.00
62583;DHT22;48641;51.676;5.808;2024-01-15T15:29:05;15.10;51.00
62583;DHT22;48641;51.676;5.808;2024-01-15T15:31:30;15.10;50.60
62583;DHT22;48641;51.676;5.808;2024-01-15T15:33:56;15.10;50.90
62583;DHT22;48641;51.676;5.808;2024-01-15T15:36:22;15.10;50.90
62583;DHT22;48641;51.676;5.808;2024-01-15T15:38:48;15.10;50.90
62583;DHT22;48641;51.676;5.808;2024-01-15T15:41:14;15.10;52.00
62583;DHT22;48641;51.676;5.808;2024-01-15T15:43:40;15.10;51.00